Time;durP1;ratioP1;P1;durP2;ratioP2;P2;SDS_P1;SDS_P2;PMS_P1;PMS_P2;Temp;Humidity;BMP_temperature;BMP_pressure;BME280_temperature;BME280_humidity;BME280_pressure;Samples;Min_cycle;Max_cycle;Signal;HPM_P1;HPM_P2
2021/06/23 00:03:28;;;;;;;7.90;2.85;;;;;;;18.73;78.35;100706.69;5168534;55;1140905;-80
2021/06/23 00:08:34;;;;;;;3.90;2.37;;;;;;;18.80;78.53;100699.64;5168567;55;1138792;-80
2021/06/23 00:13:39;;;;;;;8.70;2.12;;;;;;;18.90;78.45;100697.65;5168340;55;1138656;-82
2021/06/23 00:18:45;;;;;;;7.20;2.27;;;;;;;18.92;77.31;100697.48;5129206;55;1138640;-81
2021/06/23 00:23:51;;;;;;;7.80;2.10;;;;;;;18.87;76.65;100714.56;5083307;56;1138568;-81
2021/06/23 00:28:57;;;;;;;7.40;2.02;;;;;;;18.74;76.46;100721.77;5083123;56;1138903;-80
2021/06/23 00:34:04;;;;;;;6.87;2.27;;;;;;;18.65;76.34;100728.60;5083512;55;1138714;-82
2021/06/23 00:39:10;;;;;;;5.85;2.42;;;;;;;18.55;76.74;100720.20;5083410;55;1138907;-83
2021/06/23 00:44:19;;;;;;;4.10;2.16;;;;;;;18.48;76.63;100719.70;5075747;56;1138671;-82
2021/06/23 00:49:30;;;;;;;6.23;2.70;;;;;;;18.38;76.76;100725.69;5083368;56;1138907;-80
2021/06/23 00:54:52;;;;;;;6.83;2.95;;;;;;;18.31;76.94;100730.89;5082293;56;1138964;-83
2021/06/23 01:00:04;;;;;;;7.28;3.30;;;;;;;18.42;77.60;100727.05;5081903;56;1138807;-80
2021/06/23 01:05:11;;;;;;;8.93;2.72;;;;;;;18.42;77.44;100725.70;5083249;56;1138692;-80
2021/06/23 01:10:18;;;;;;;12.05;2.85;;;;;;;18.27;76.93;100741.58;5068986;56;1138926;-82
2021/06/23 01:15:25;;;;;;;7.75;3.30;;;;;;;18.20;77.50;100740.53;5014849;57;1140886;-81
2021/06/23 01:20:31;;;;;;;9.78;2.85;;;;;;;18.10;77.78;100755.91;5128802;55;1139029;-79
2021/06/23 01:25:38;;;;;;;11.15;2.85;;;;;;;18.02;77.79;100750.54;5168156;55;1138631;-80
2021/06/23 01:30:45;;;;;;;6.33;2.20;;;;;;;18.01;77.82;100754.21;5168107;55;1140881;-81
2021/06/23 01:35:59;;;;;;;7.75;2.60;;;;;;;18.00;77.89;100760.56;5167873;55;1138908;-79
2021/06/23 01:41:06;;;;;;;6.28;2.60;;;;;;;17.84;77.58;100759.48;5168304;55;1138668;-81
2021/06/23 01:46:14;;;;;;;7.70;2.47;;;;;;;17.69;77.34;100757.57;5168560;55;1138634;-79
2021/06/23 01:51:20;;;;;;;7.00;2.77;;;;;;;17.74;77.76;100757.41;5168480;55;1138764;-79
2021/06/23 01:56:32;;;;;;;10.70;2.30;;;;;;;17.78;77.07;100754.77;5168443;55;1138670;-82
2021/06/23 02:02:03;;;;;;;10.40;2.25;;;;;;;17.82;76.56;100762.82;5109302;57;1140817;-81
2021/06/23 02:07:32;;;;;;;3.96;2.04;;;;;;;17.76;76.23;100752.75;5142489;56;1140781;-83
2021/06/23 02:13:26;;;;;;;11.00;2.35;;;;;;;17.61;75.94;100762.83;5116934;57;1138950;-80
2021/06/23 02:18:34;;;;;;;7.10;2.77;;;;;;;17.55;75.98;100765.16;5085518;56;1141001;-80
2021/06/23 02:23:47;;;;;;;8.08;2.27;;;;;;;17.49;75.95;100763.10;5033879;57;1138938;-81
2021/06/23 02:28:55;;;;;;;5.17;2.37;;;;;;;17.45;76.30;100767.08;5041724;56;1138843;-82
2021/06/23 02:34:01;;;;;;;4.90;2.05;;;;;;;17.44;75.47;100769.41;5041634;57;1138729;-82
2021/06/23 02:39:10;;;;;;;5.25;1.27;;;;;;;17.38;75.67;100771.39;5075093;56;1138709;-81
2021/06/23 02:44:17;;;;;;;6.90;1.60;;;;;;;17.37;75.23;100782.23;5083451;56;1138932;-81
2021/06/23 02:49:24;;;;;;;8.10;1.90;;;;;;;17.39;75.59;100782.44;5083547;56;1138709;-79
2021/06/23 02:54:32;;;;;;;5.17;2.22;;;;;;;17.37;75.37;100792.44;5083320;56;1138725;-79
2021/06/23 02:59:42;;;;;;;6.17;2.55;;;;;;;17.39;75.18;100793.13;5082749;56;1138892;-82
2021/06/23 03:04:50;;;;;;;5.37;1.87;;;;;;;17.46;75.80;100783.96;5083150;55;1138805;-81
2021/06/23 03:10:11;;;;;;;4.40;2.17;;;;;;;17.52;75.67;100787.36;5083140;56;1138675;-81
2021/06/23 03:15:35;;;;;;;9.13;1.87;;;;;;;17.53;75.69;100772.99;5083382;56;1138933;-80
2021/06/23 03:20:54;;;;;;;8.80;1.77;;;;;;;17.69;76.00;100777.64;5050074;56;1138797;-83
2021/06/23 03:26:00;;;;;;;5.97;2.08;;;;;;;17.70;75.68;100800.22;5058405;56;1138916;-80
2021/06/23 03:31:07;;;;;;;11.30;2.03;;;;;;;17.73;76.00;100807.90;5058346;56;1138842;-79
2021/06/23 03:36:15;;;;;;;7.83;2.60;;;;;;;17.79;76.16;100803.27;5058244;56;1140848;-79
2021/06/23 03:41:21;;;;;;;10.78;2.60;;;;;;;17.80;75.68;100810.30;5058463;56;1138799;-81
2021/06/23 03:46:29;;;;;;;4.55;1.95;;;;;;;17.93;75.93;100817.39;5058478;56;1140769;-79
2021/06/23 03:51:36;;;;;;;7.00;2.62;;;;;;;18.00;75.68;100824.80;5058511;56;1138688;-79
2021/06/23 03:56:42;;;;;;;15.38;1.82;;;;;;;18.01;75.78;100831.83;5107572;55;1138854;-82
2021/06/23 04:01:48;;;;;;;8.00;1.98;;;;;;;18.00;75.16;100848.88;5169495;55;1140904;-80
2021/06/23 04:06:55;;;;;;;6.12;2.27;;;;;;;17.87;75.11;100844.77;5170912;55;1138750;-79
2021/06/23 04:12:01;;;;;;;14.43;3.00;;;;;;;17.74;75.22;100856.40;5168323;55;1138659;-81
2021/06/23 04:17:09;;;;;;;10.75;3.37;;;;;;;17.66;75.42;100859.03;5157113;55;1140797;-80
2021/06/23 04:22:16;;;;;;;13.15;2.90;;;;;;;17.61;75.81;100866.64;5072228;56;1141021;-80
2021/06/23 04:27:23;;;;;;;6.20;2.12;;;;;;;17.66;76.01;100867.06;5066623;56;1140972;-81
2021/06/23 04:32:30;;;;;;;13.58;2.25;;;;;;;17.69;75.91;100881.96;5068649;56;1138677;-81
2021/06/23 04:37:42;;;;;;;7.42;2.22;;;;;;;17.75;76.18;100891.52;5076960;56;1141092;-81
2021/06/23 04:42:47;;;;;;;12.28;2.72;;;;;;;17.79;76.64;100890.22;5077564;56;1138737;-81
2021/06/23 04:47:54;;;;;;;6.83;1.90;;;;;;;17.96;76.83;100890.33;5077402;56;1140862;-80
2021/06/23 04:53:00;;;;;;;16.37;2.67;;;;;;;18.07;76.79;100892.23;5073790;56;1139165;-81
2021/06/23 04:58:06;;;;;;;9.58;2.62;;;;;;;18.19;76.63;100895.48;5071064;56;1141028;-80
2021/06/23 05:03:12;;;;;;;9.80;2.65;;;;;;;18.36;76.79;100907.12;5071030;56;1138580;-80
2021/06/23 05:08:18;;;;;;;8.38;2.67;;;;;;;18.47;76.05;100917.07;5071115;56;1139004;-80
2021/06/23 05:13:25;;;;;;;10.05;2.20;;;;;;;18.60;76.18;100916.66;5070495;56;1138952;-80
2021/06/23 05:18:31;;;;;;;11.45;1.95;;;;;;;18.65;75.41;100920.16;5069482;56;1140823;-81
2021/06/23 05:23:37;;;;;;;7.08;2.15;;;;;;;18.71;75.39;100918.19;5075098;56;1140922;-81
2021/06/23 05:28:42;;;;;;;6.97;3.00;;;;;;;18.71;74.98;100920.88;5076557;56;1138843;-80
2021/06/23 05:33:48;;;;;;;9.55;2.80;;;;;;;18.69;74.74;100920.19;5078152;56;1138703;-81
2021/06/23 05:38:55;;;;;;;7.90;2.02;;;;;;;18.58;73.71;100926.66;5076459;56;1138851;-80
2021/06/23 05:44:00;;;;;;;12.47;2.77;;;;;;;18.49;74.50;100935.13;5076395;55;1138939;-81
2021/06/23 05:49:06;;;;;;;8.70;2.50;;;;;;;18.49;74.31;100942.33;5076901;55;1140920;-81
2021/06/23 05:54:12;;;;;;;6.10;1.75;;;;;;;18.58;74.84;100942.73;5075878;56;1138950;-81
2021/06/23 05:59:17;;;;;;;8.38;2.42;;;;;;;18.73;75.00;100955.05;5077055;56;1138684;-81
2021/06/23 06:04:23;;;;;;;5.65;1.98;;;;;;;18.81;74.23;100963.95;5076540;56;1138915;-80
2021/06/23 06:09:29;;;;;;;12.80;2.42;;;;;;;18.90;73.78;100967.02;5075878;56;1138740;-81
2021/06/23 06:14:35;;;;;;;5.15;1.87;;;;;;;18.89;73.23;100976.05;5076759;56;1140915;-80
2021/06/23 06:19:41;;;;;;;12.20;2.50;;;;;;;18.91;73.18;100978.58;5131893;55;1138758;-81
2021/06/23 06:24:46;;;;;;;5.84;1.86;;;;;;;18.89;72.33;100986.78;5160760;55;1140975;-81
2021/06/23 06:29:52;;;;;;;3.33;1.50;;;;;;;18.81;71.76;100986.73;5127801;55;1138748;-81
2021/06/23 06:34:58;;;;;;;10.38;2.10;;;;;;;18.72;71.13;100982.84;5149268;55;1138834;-81
2021/06/23 06:40:05;;;;;;;6.70;2.37;;;;;;;18.72;71.23;100977.48;5160140;55;1140932;-81
2021/06/23 06:45:11;;;;;;;9.40;2.12;;;;;;;18.74;71.46;100983.52;5159794;55;1138839;-81
2021/06/23 06:50:17;;;;;;;5.00;1.67;;;;;;;18.80;71.79;100988.22;5160210;55;1139409;-81
2021/06/23 06:55:24;;;;;;;12.40;1.88;;;;;;;18.78;70.87;100979.03;5173755;55;1144681;-80
2021/06/23 07:00:30;;;;;;;8.13;1.90;;;;;;;18.77;70.42;100981.88;5158609;55;1140845;-80
2021/06/23 07:05:36;;;;;;;7.67;2.27;;;;;;;18.83;70.50;100986.07;5109317;55;1138889;-82
2021/06/23 07:10:41;;;;;;;12.25;2.85;;;;;;;19.01;71.29;100994.02;5080986;56;1138780;-82
2021/06/23 07:15:47;;;;;;;11.70;2.17;;;;;;;19.07;70.29;100989.86;5073675;56;1140937;-82
2021/06/23 07:20:53;;;;;;;8.55;2.40;;;;;;;19.08;70.09;101000.42;5073607;55;1141133;-82
2021/06/23 07:25:59;;;;;;;13.83;2.92;;;;;;;19.09;69.77;100995.91;5069651;55;1138841;-82
2021/06/23 07:31:07;;;;;;;6.25;2.05;;;;;;;19.06;69.37;100992.20;5067518;55;1141489;-81
2021/06/23 07:41:37;;;;;;;12.53;2.65;;;;;;;19.13;69.91;101010.14;4959037;58;1138849;-82
2021/06/23 07:47:00;;;;;;;5.95;2.47;;;;;;;19.29;69.84;101020.08;4958286;58;1140972;-82
2021/06/23 07:52:22;;;;;;;5.22;2.27;;;;;;;19.42;70.26;101015.58;4958328;58;1139120;-82
2021/06/23 08:12:58;;;;;;;7.20;2.35;;;;;;;20.33;70.85;101027.91;5066502;55;1138880;-81
2021/06/23 08:18:05;;;;;;;13.88;3.15;;;;;;;20.66;69.53;101030.58;5108786;55;1138869;-83
2021/06/23 08:23:11;;;;;;;9.70;2.33;;;;;;;20.81;69.71;101032.89;5084560;56;1141027;-82
2021/06/23 08:28:17;;;;;;;7.37;2.65;;;;;;;21.15;70.69;101045.20;5084421;56;1138721;-81
2021/06/23 08:33:26;;;;;;;9.93;3.12;;;;;;;21.41;69.56;101041.23;5084109;56;1138837;-83
2021/06/23 08:38:30;;;;;;;7.98;3.12;;;;;;;21.55;67.58;101027.52;5073621;56;1138881;-81
2021/06/23 08:43:36;;;;;;;13.08;2.50;;;;;;;21.52;66.69;101033.28;5074747;56;1138934;-83
2021/06/23 08:48:43;;;;;;;4.65;2.30;;;;;;;21.74;68.36;101035.64;5088102;56;1140847;-82
2021/06/23 08:53:49;;;;;;;9.50;2.60;;;;;;;21.98;67.04;101037.34;5128765;56;1138679;-81
2021/06/23 08:58:54;;;;;;;12.90;2.85;;;;;;;22.04;66.47;101030.73;5125610;56;1138824;-82
2021/06/23 09:04:12;;;;;;;12.85;2.80;;;;;;;;;;5132475;56;1141031;-81
2021/06/23 09:09:36;;;;;;;6.85;2.67;;;;;;;21.88;64.95;101038.06;5155170;56;820044;-85
2021/06/23 09:14:42;;;;;;;6.58;2.60;;;;;;;21.91;64.25;101041.75;5128766;56;1136963;-83
2021/06/23 09:19:52;;;;;;;7.00;2.62;;;;;;;22.02;64.38;101044.05;5114502;55;1138836;-83
2021/06/23 09:24:59;;;;;;;19.67;2.50;;;;;;;22.21;65.60;101033.28;5053963;57;1138768;-82
2021/06/23 09:30:37;;;;;;;3.80;1.92;;;;;;;22.43;63.81;101017.59;5105207;55;1140862;-81
2021/06/23 09:35:50;;;;;;;4.85;2.52;;;;;;;22.71;64.41;101012.40;5138398;55;1138928;-83
2021/06/23 09:40:56;;;;;;;5.80;2.40;;;;;;;22.98;64.19;101010.92;5109118;56;1138665;-82
2021/06/23 09:46:02;;;;;;;15.65;3.27;;;;;;;23.09;63.03;101005.03;5122469;56;1138982;-81
2021/06/23 09:51:19;;;;;;;12.88;2.50;;;;;;;23.35;63.95;100997.79;4995481;57;1140926;-81
2021/06/23 09:56:45;;;;;;;8.10;2.58;;;;;;;23.61;63.59;101012.95;5076019;57;1140990;-82
2021/06/23 10:01:50;;;;;;;6.60;2.15;;;;;;;23.67;62.74;101014.89;5105190;57;1138803;-82
2021/06/23 10:06:56;;;;;;;2.80;1.25;;;;;;;23.77;61.89;101017.27;5104295;57;1138758;-82
2021/06/23 10:12:10;;;;;;;3.42;1.87;;;;;;;23.91;59.94;101019.06;5086651;57;1139062;-82
2021/06/23 10:17:16;;;;;;;7.05;2.05;;;;;;;23.83;60.33;101027.31;5103478;56;1138743;-85
2021/06/23 10:22:22;;;;;;;10.95;2.70;;;;;;;23.89;60.52;101034.63;5038217;56;1139053;-84
2021/06/23 10:27:29;;;;;;;6.60;1.92;;;;;;;23.97;58.76;101039.08;5055029;56;1147603;-83
2021/06/23 10:32:34;;;;;;;7.07;2.53;;;;;;;23.97;58.48;101028.27;5124899;56;1147684;-84
2021/06/23 10:37:42;;;;;;;3.98;2.12;;;;;;;24.14;60.06;101025.07;5124812;56;1138863;-83
2021/06/23 10:42:48;;;;;;;5.35;1.82;;;;;;;24.43;61.10;101020.56;5123369;56;1138885;-81
2021/06/23 10:47:58;;;;;;;4.78;2.37;;;;;;;24.59;55.88;101024.32;5126365;56;1139006;-82
2021/06/23 10:53:25;;;;;;;5.78;1.90;;;;;;;24.47;56.42;101025.88;5152138;56;1138897;-84
2021/06/23 10:58:36;;;;;;;8.60;2.42;;;;;;;24.45;56.88;101010.36;5158633;56;1138825;-84
2021/06/23 11:04:04;;;;;;;6.95;1.92;;;;;;;24.71;57.02;101009.72;5158496;56;1139015;-82
2021/06/23 11:09:28;;;;;;;7.58;2.00;;;;;;;24.95;58.86;101004.34;5158400;56;1138743;-82
2021/06/23 11:14:35;;;;;;;5.60;1.70;;;;;;;25.16;57.08;101006.95;5158443;56;1138869;-84
2021/06/23 11:19:41;;;;;;;6.22;2.35;;;;;;;25.26;53.97;100987.59;5133068;56;1139221;-81
2021/06/23 11:24:49;;;;;;;5.07;1.90;;;;;;;25.14;54.39;100994.96;5146585;56;1138830;-82
2021/06/23 11:29:55;;;;;;;4.95;2.02;;;;;;;25.20;54.88;100998.74;5140074;56;1138975;-83
2021/06/23 11:35:01;;;;;;;5.97;1.62;;;;;;;25.41;54.60;100999.09;5108562;56;1138903;-82
2021/06/23 11:40:13;;;;;;;4.75;1.92;;;;;;;25.49;54.41;100995.70;5155868;56;1138689;-83
2021/06/23 11:45:20;;;;;;;;;;;;;;;25.42;53.13;100985.87;5155534;56;1138948;-84
2021/06/23 11:50:26;;;;;;;6.87;2.00;;;;;;;25.22;52.51;100995.28;5169901;56;975909;-81
2021/06/23 11:55:31;;;;;;;3.85;2.27;;;;;;;24.96;52.48;101001.95;5156252;56;1137019;-81
2021/06/23 12:00:40;;;;;;;6.25;2.42;;;;;;;24.85;52.88;101008.23;5155644;56;1138696;-79
2021/06/23 12:05:47;;;;;;;3.40;1.77;;;;;;;24.82;53.39;101011.84;5154951;56;1138880;-80
2021/06/23 12:10:53;;;;;;;4.92;2.12;;;;;;;24.97;53.12;101003.11;5155640;56;1138715;-80
2021/06/23 12:15:58;;;;;;;3.30;2.00;;;;;;;25.07;53.12;101010.84;5156041;56;1138803;-78
2021/06/23 12:21:05;;;;;;;6.50;2.35;;;;;;;25.02;52.25;101006.06;5155529;56;1138807;-79
2021/06/23 12:26:11;;;;;;;6.58;2.02;;;;;;;24.94;52.59;101010.78;5155766;56;1138751;-79
2021/06/23 12:31:16;;;;;;;5.10;2.30;;;;;;;24.85;53.29;101014.16;5155630;56;1138577;-79
2021/06/23 12:36:22;;;;;;;6.62;2.42;;;;;;;24.66;52.93;101000.84;5143214;56;1138757;-79
2021/06/23 12:41:28;;;;;;;6.70;2.80;;;;;;;24.59;53.51;101012.15;5133640;56;1138815;-79
2021/06/23 12:46:34;;;;;;;6.70;2.15;;;;;;;24.53;54.43;101016.98;5134410;56;1138989;-79
2021/06/23 12:51:40;;;;;;;6.78;2.65;;;;;;;24.41;54.63;101016.70;5134341;56;1138799;-79
2021/06/23 12:56:46;;;;;;;9.50;2.47;;;;;;;24.29;55.05;101018.25;5134507;56;1138785;-79
2021/06/23 13:01:51;;;;;;;5.37;2.20;;;;;;;24.19;55.91;101006.92;5133822;56;1138934;-79
2021/06/23 13:06:57;;;;;;;4.85;2.02;;;;;;;24.14;57.15;101006.15;5134192;56;1138740;-81
2021/06/23 13:12:03;;;;;;;14.23;2.98;;;;;;;24.14;56.83;101025.58;5133386;56;1138989;-82
2021/06/23 13:17:09;;;;;;;5.12;2.47;;;;;;;24.04;58.75;101032.68;5132592;56;1141038;-82
2021/06/23 13:22:15;;;;;;;10.18;2.70;;;;;;;23.99;60.36;101042.39;5132198;56;1138748;-81
2021/06/23 13:27:22;;;;;;;4.53;3.08;;;;;;;23.87;61.75;101026.38;5132064;56;1140796;-80
2021/06/23 13:32:27;;;;;;;7.20;3.02;;;;;;;23.80;62.77;101016.88;5133131;56;1138692;-82
2021/06/23 13:37:33;;;;;;;7.12;2.92;;;;;;;23.69;63.19;101010.11;5133093;56;1138888;-85
2021/06/23 13:42:39;;;;;;;7.42;2.58;;;;;;;23.57;63.49;101011.65;5132607;56;1138937;-85
2021/06/23 13:47:45;;;;;;;6.67;2.70;;;;;;;23.52;63.48;101030.83;5079041;56;1138865;-84
2021/06/23 13:52:52;;;;;;;7.22;2.72;;;;;;;23.44;63.03;101023.63;5051122;56;1138713;-87
2021/06/23 13:58:04;;;;;;;7.35;2.47;;;;;;;23.49;63.37;101035.54;5052067;56;1138764;-88
2021/06/23 14:03:11;;;;;;;4.55;2.80;;;;;;;23.57;64.42;101025.66;5052814;56;1138715;-86
2021/06/23 14:08:17;;;;;;;3.83;2.33;;;;;;;23.65;64.95;101022.34;5052146;56;1138789;-86
2021/06/23 14:13:23;;;;;;;8.70;2.75;;;;;;;23.79;64.07;101026.85;5029970;56;1138817;-87
2021/06/23 14:18:31;;;;;;;5.90;2.40;;;;;;;23.95;63.40;101024.41;5082695;56;1138794;-87
2021/06/23 14:23:37;;;;;;;6.75;2.27;;;;;;;24.23;62.21;101028.52;5134992;56;1139001;-84
2021/06/23 14:28:43;;;;;;;7.28;2.98;;;;;;;24.42;60.97;101021.08;5133279;56;1138867;-80
2021/06/23 14:33:48;;;;;;;7.05;2.47;;;;;;;24.60;60.59;101028.66;5115784;56;1138700;-80
2021/06/23 14:38:54;;;;;;;3.98;2.35;;;;;;;24.60;58.83;101025.12;5060438;56;1138719;-82
2021/06/23 14:44:03;;;;;;;11.45;2.45;;;;;;;24.48;56.90;101029.73;5072440;56;1138769;-82
2021/06/23 14:49:08;;;;;;;8.23;2.67;;;;;;;24.46;57.71;101020.98;5056974;56;1140769;-82
2021/06/23 14:54:15;;;;;;;6.25;2.85;;;;;;;24.48;57.63;101020.79;5057453;56;1138748;-82
2021/06/23 14:59:20;;;;;;;7.75;2.90;;;;;;;24.53;58.17;101020.53;5058479;56;1138980;-82
2021/06/23 15:04:26;;;;;;;4.55;3.15;;;;;;;24.61;57.72;101020.03;5054811;57;1138703;-84
2021/06/23 15:09:32;;;;;;;11.90;3.37;;;;;;;24.65;56.89;101028.08;5044859;57;1138878;-82
2021/06/23 15:14:38;;;;;;;6.12;2.52;;;;;;;24.65;57.64;101030.78;5040028;57;1140786;-82
2021/06/23 15:19:44;;;;;;;7.55;2.92;;;;;;;24.65;57.64;101030.78;5112574;56;1138899;-82
2021/06/23 15:24:50;;;;;;;6.20;2.60;;;;;;;24.76;57.50;101028.87;5137326;56;1138876;-82
2021/06/23 15:29:56;;;;;;;9.63;2.45;;;;;;;24.82;56.68;101030.27;5057681;56;1138720;-82
2021/06/23 15:35:03;;;;;;;7.62;2.90;;;;;;;24.83;56.82;101036.52;5058023;56;1139170;-83
2021/06/23 15:40:10;;;;;;;8.83;3.62;;;;;;;24.71;56.42;101035.41;5096744;56;1138924;-83
2021/06/23 15:45:17;;;;;;;7.62;3.75;;;;;;;24.65;57.21;101033.48;5109622;56;1138743;-81
2021/06/23 15:50:23;;;;;;;5.05;2.30;;;;;;;24.59;56.19;101028.89;5102068;56;1138762;-82
2021/06/23 15:55:29;;;;;;;9.55;2.95;;;;;;;24.56;56.46;101028.77;5103986;56;1138826;-83
2021/06/23 16:00:35;;;;;;;4.90;2.75;;;;;;;24.50;57.31;101034.44;5089386;56;1138826;-81
2021/06/23 16:05:40;;;;;;;7.10;3.58;;;;;;;24.48;56.60;101041.07;5075796;56;1138754;-83
2021/06/23 16:10:46;;;;;;;5.60;2.67;;;;;;;24.38;56.33;101040.59;5046980;56;1138729;-83
2021/06/23 16:15:52;;;;;;;5.10;2.10;;;;;;;24.33;56.51;101041.17;5063448;56;1148609;-84
2021/06/23 16:21:01;;;;;;;5.65;1.92;;;;;;;24.33;56.50;101043.87;5107979;56;1138897;-82
2021/06/23 16:26:07;;;;;;;4.87;2.40;;;;;;;24.27;56.54;101045.19;5144236;56;1138953;-82
2021/06/23 16:31:13;;;;;;;5.78;2.70;;;;;;;24.26;56.71;101048.92;5146425;56;1138773;-82
2021/06/23 16:36:19;;;;;;;5.10;2.40;;;;;;;24.18;57.70;101045.28;5146401;56;1138664;-81
2021/06/23 16:41:26;;;;;;;4.58;2.37;;;;;;;24.11;58.57;101047.11;5145968;56;1138895;-81
2021/06/23 16:46:31;;;;;;;14.70;3.70;;;;;;;24.01;59.22;101049.80;5144102;55;1138955;-82
2021/06/23 16:51:39;;;;;;;7.22;3.00;;;;;;;23.92;60.05;101048.27;5144716;55;1141047;-81
2021/06/23 16:56:44;;;;;;;11.40;3.30;;;;;;;23.84;60.35;101046.51;5133593;55;1138785;-83
2021/06/23 17:01:51;;;;;;;6.13;2.67;;;;;;;23.87;60.39;101054.23;5258958;55;1140902;-84
2021/06/23 17:06:57;;;;;;;8.55;2.67;;;;;;;23.87;60.21;101047.99;5252806;55;1138815;-84
2021/06/23 17:12:03;;;;;;;8.45;3.35;;;;;;;23.98;60.81;101044.80;5248315;55;1138891;-84
2021/06/23 17:17:09;;;;;;;8.58;3.70;;;;;;;24.06;60.57;101048.19;5225552;55;1138917;-80
2021/06/23 17:22:15;;;;;;;8.98;4.15;;;;;;;24.03;59.94;101030.17;5084870;56;1138610;-85
2021/06/23 17:27:21;;;;;;;7.75;3.62;;;;;;;24.01;60.15;101038.47;5085690;56;1138780;-82
2021/06/23 17:32:27;;;;;;;10.10;3.20;;;;;;;23.90;60.90;101039.00;5085661;56;1138951;-80
2021/06/23 17:37:32;;;;;;;9.93;2.77;;;;;;;23.57;59.81;101041.35;5085386;56;1140753;-81
2021/06/23 17:42:38;;;;;;;8.03;3.17;;;;;;;23.19;59.33;101037.98;5112865;56;1138887;-78
2021/06/23 17:47:53;;;;;;;10.65;3.00;;;;;;;23.01;60.27;101033.48;5136569;55;1138755;-78
2021/06/23 17:52:53;;;;;;;6.50;3.07;;;;;;;22.96;60.57;101036.73;5126821;56;1141029;-83
2021/06/23 17:58:05;;;;;;;10.63;3.35;;;;;;;22.92;60.84;101046.73;5128845;56;1138801;-78
2021/06/23 18:03:11;;;;;;;6.53;3.20;;;;;;;22.92;60.84;101046.73;5130245;56;1140788;-80
2021/06/23 18:08:18;;;;;;;10.32;3.12;;;;;;;22.88;61.20;101048.14;5130060;56;1138817;-83
2021/06/23 18:13:26;;;;;;;6.28;3.17;;;;;;;22.84;61.50;101046.33;5128192;56;1140860;-82
2021/06/23 18:18:31;;;;;;;10.93;6.30;;;;;;;22.87;61.80;101051.35;5128473;56;1139223;-86
2021/06/23 18:23:37;;;;;;;11.53;6.05;;;;;;;22.94;61.82;101048.73;5129175;56;1140818;-87
2021/06/23 18:28:43;;;;;;;8.70;2.97;;;;;;;23.01;61.82;101061.30;5129489;56;1141185;-81
2021/06/23 18:33:49;;;;;;;11.10;3.50;;;;;;;22.99;62.05;101060.65;5134666;56;1138958;-80
2021/06/23 18:38:54;;;;;;;8.20;2.35;;;;;;;22.97;62.33;101063.20;5132960;55;1141032;-78
2021/06/23 18:44:01;;;;;;;7.20;2.92;;;;;;;23.02;62.57;101068.88;5128762;56;1138956;-78
2021/06/23 18:49:07;;;;;;;8.53;4.00;;;;;;;22.97;62.34;101061.34;5128704;56;1138948;-85
2021/06/23 18:54:13;;;;;;;9.58;3.08;;;;;;;22.95;62.45;101063.38;5129218;56;1138781;-80
2021/06/23 18:59:19;;;;;;;4.10;3.00;;;;;;;22.88;62.47;101066.52;5128984;56;1138982;-84
2021/06/23 19:04:25;;;;;;;7.45;3.08;;;;;;;22.91;63.10;101051.31;5133458;56;1139130;-83
2021/06/23 19:09:31;;;;;;;5.97;3.00;;;;;;;22.94;62.95;101056.31;5120776;56;1138758;-82
2021/06/23 19:14:41;;;;;;;8.40;3.47;;;;;;;22.95;63.12;101056.64;5046562;56;1259667;-84
2021/06/23 19:19:45;;;;;;;8.70;3.35;;;;;;;22.95;63.03;101062.03;5107259;56;1138782;-80
2021/06/23 19:24:52;;;;;;;7.03;3.85;;;;;;;22.96;63.34;101061.02;5134796;56;1138727;-81
2021/06/23 19:29:57;;;;;;;8.63;3.40;;;;;;;23.08;63.66;101061.38;5135041;56;1138657;-80
2021/06/23 19:35:04;;;;;;;5.45;3.70;;;;;;;23.12;63.18;101064.03;5133734;56;1138735;-85
2021/06/23 19:40:14;;;;;;;13.18;4.17;;;;;;;23.05;63.32;101055.87;5138417;56;1138722;-79
2021/06/23 19:45:22;;;;;;;10.48;5.12;;;;;;;23.01;63.65;101054.55;5109572;56;1141131;-86
2021/06/23 19:50:28;;;;;;;9.95;5.03;;;;;;;22.89;63.78;101061.45;5116845;56;1140631;-84
2021/06/23 19:55:37;;;;;;;10.88;5.35;;;;;;;22.80;64.02;101060.69;5110297;56;1138709;-86
2021/06/23 20:00:44;;;;;;;16.36;5.52;;;;;;;22.78;63.98;101052.45;5076641;56;1140874;-85
2021/06/23 20:05:50;;;;;;;11.65;5.45;;;;;;;22.69;63.80;101058.42;5099825;56;1140839;-83
2021/06/23 20:10:56;;;;;;;11.48;4.78;;;;;;;22.64;63.31;101064.87;5119396;56;1140809;-80
2021/06/23 20:16:03;;;;;;;10.03;4.92;;;;;;;22.54;63.21;101062.96;5154311;56;1140889;-82
2021/06/23 20:21:09;;;;;;;6.50;3.25;;;;;;;22.46;63.56;101059.81;5121567;56;1140696;-84
2021/06/23 20:26:16;;;;;;;10.68;4.00;;;;;;;22.43;63.87;101061.56;5120562;56;1138767;-81
2021/06/23 20:31:21;;;;;;;14.00;3.90;;;;;;;22.44;64.35;101059.19;5152740;56;1140656;-78
2021/06/23 20:36:29;;;;;;;10.85;4.15;;;;;;;22.55;64.53;101058.41;5118143;56;1140685;-78
2021/06/23 20:41:34;;;;;;;9.15;3.47;;;;;;;22.50;64.01;101061.64;5143817;56;1140543;-83
2021/06/23 20:46:40;;;;;;;14.07;4.00;;;;;;;22.40;63.96;101052.99;5108576;56;1138878;-79
2021/06/23 20:51:46;;;;;;;11.53;4.33;;;;;;;22.38;64.53;101053.17;5122504;56;1140775;-81
2021/06/23 20:56:54;;;;;;;9.50;4.83;;;;;;;22.34;64.21;101057.24;5125851;55;1140855;-80
2021/06/23 21:01:59;;;;;;;8.85;3.87;;;;;;;22.29;64.37;101053.44;5123364;56;1138755;-82
2021/06/23 21:07:05;;;;;;;10.60;4.70;;;;;;;22.24;64.47;101050.45;5111154;56;1138913;-83
2021/06/23 21:12:11;;;;;;;13.10;6.00;;;;;;;22.24;64.61;101045.89;5082991;56;1140733;-84
2021/06/23 21:17:17;;;;;;;10.13;4.75;;;;;;;22.25;64.57;101026.52;5096952;56;1140644;-82
2021/06/23 21:22:26;;;;;;;7.67;4.25;;;;;;;22.26;64.27;101027.69;5128285;56;1140726;-80
2021/06/23 21:27:33;;;;;;;15.93;5.85;;;;;;;22.27;64.52;101013.20;5128134;56;1138626;-80
2021/06/23 21:32:39;;;;;;;91.65;35.52;;;;;;;22.30;64.74;101036.25;5168571;56;1140657;-81
2021/06/23 21:37:45;;;;;;;102.68;36.00;;;;;;;22.31;64.83;101034.69;5168491;56;1142769;-82
2021/06/23 21:43:09;;;;;;;136.20;47.60;;;;;;;22.31;64.66;101044.63;5168240;56;1144862;-85
2021/06/23 21:48:23;;;;;;;141.60;51.95;;;;;;;22.27;64.57;101042.00;5159965;56;1144948;-77
2021/06/23 21:53:31;;;;;;;116.03;46.02;;;;;;;22.20;64.74;101043.73;5138357;56;1145174;-80
2021/06/23 21:58:37;;;;;;;165.65;56.48;;;;;;;22.09;65.01;101050.40;5138507;56;1145107;-79
2021/06/23 22:03:50;;;;;;;50.17;19.42;;;;;;;21.98;64.69;101046.77;5138631;56;1145058;-84
2021/06/23 22:08:58;;;;;;;24.87;9.75;;;;;;;21.93;64.97;101049.15;5139368;55;1142908;-83
2021/06/23 22:14:14;;;;;;;35.80;10.80;;;;;;;21.87;65.03;101048.00;5139089;55;1140845;-84
2021/06/23 22:19:16;;;;;;;68.72;24.37;;;;;;;21.85;65.24;101039.77;5091181;56;1142752;-84
2021/06/23 22:24:23;;;;;;;61.50;23.60;;;;;;;21.77;65.52;101019.14;5054307;57;1142752;-81
2021/06/23 22:29:30;;;;;;;35.73;13.60;;;;;;;21.75;65.87;101013.09;5024251;57;1142862;-80
2021/06/23 22:34:37;;;;;;;12.55;4.85;;;;;;;21.70;65.81;101024.39;5054234;57;1142796;-80
2021/06/23 22:39:52;;;;;;;17.87;6.35;;;;;;;21.66;65.07;101030.33;5024682;57;1141001;-84
2021/06/23 22:44:57;;;;;;;14.18;5.90;;;;;;;21.44;64.62;101029.78;5053838;56;1140836;-83
2021/06/23 22:50:09;;;;;;;21.30;6.47;;;;;;;21.28;65.35;101015.41;5061500;57;1141107;-82
2021/06/23 22:55:18;;;;;;;12.58;4.85;;;;;;;21.23;65.69;101006.20;5077054;56;1140906;-81
2021/06/23 23:00:26;;;;;;;12.43;5.47;;;;;;;21.15;65.73;101009.73;5077058;56;1140785;-82
2021/06/23 23:05:33;;;;;;;11.40;4.47;;;;;;;21.08;65.93;101003.89;5077303;55;1140662;-83
2021/06/23 23:10:40;;;;;;;9.13;4.83;;;;;;;21.01;65.80;101014.00;5077097;56;1140811;-84
2021/06/23 23:15:46;;;;;;;15.05;4.65;;;;;;;20.86;65.97;101013.55;5077321;56;1138622;-86
2021/06/23 23:20:51;;;;;;;14.55;4.30;;;;;;;20.79;66.67;101006.67;5151700;56;1140752;-84
2021/06/23 23:25:57;;;;;;;12.73;4.25;;;;;;;20.72;66.82;101003.02;5162259;56;1140708;-80
2021/06/23 23:31:03;;;;;;;10.58;5.10;;;;;;;20.65;67.16;101003.36;5162229;56;1140794;-82
2021/06/23 23:36:10;;;;;;;15.15;4.80;;;;;;;20.54;67.27;101006.42;5162118;56;1140689;-80